Time;durP1;ratioP1;P1;durP2;ratioP2;P2;SDS_P1;SDS_P2;PMS_P1;PMS_P2;Temp;Humidity;BMP_temperature;BMP_pressure;BME280_temperature;BME280_humidity;BME280_pressure;Samples;Min_cycle;Max_cycle;Signal;HPM_P1;HPM_P2
2024/01/15 00:01:15;;;;;;;4.70;2.00;;;2.00;99.90;;;;;;5016381;28;20486;-79
2024/01/15 00:03:44;;;;;;;6.27;2.50;;;2.00;99.90;;;;;;5014693;28;20510;-78
2024/01/15 00:06:15;;;;;;;14.57;3.17;;;2.00;99.90;;;;;;5014436;28;20501;-79
2024/01/15 00:08:43;;;;;;;9.03;2.80;;;1.90;99.90;;;;;;5015380;28;20553;-79
2024/01/15 00:11:12;;;;;;;5.53;1.87;;;2.00;99.90;;;;;;5014349;28;20474;-78
2024/01/15 00:13:41;;;;;;;7.23;2.50;;;1.90;99.90;;;;;;5014695;28;20507;-78
2024/01/15 00:16:11;;;;;;;5.60;1.87;;;1.90;99.90;;;;;;5014446;28;20509;-79
2024/01/15 00:18:40;;;;;;;7.53;2.03;;;2.00;99.90;;;;;;5015248;28;20446;-78
2024/01/15 00:21:08;;;;;;;6.67;2.20;;;2.00;99.90;;;;;;5016160;28;20532;-78
2024/01/15 00:23:37;;;;;;;7.30;2.47;;;2.00;99.90;;;;;;5015034;28;20447;-79
2024/01/15 00:26:05;;;;;;;6.30;2.93;;;2.00;99.90;;;;;;5014923;28;20482;-79
2024/01/15 00:28:37;;;;;;;11.20;2.73;;;2.00;99.90;;;;;;5014416;28;20444;-78
2024/01/15 00:31:06;;;;;;;12.20;2.20;;;2.00;99.90;;;;;;5014616;28;20827;-79
2024/01/15 00:33:36;;;;;;;6.07;2.13;;;2.00;99.90;;;;;;5016067;28;20444;-77
2024/01/15 00:36:05;;;;;;;6.20;1.57;;;2.00;99.90;;;;;;5014343;28;20491;-78
2024/01/15 00:38:34;;;;;;;4.77;1.60;;;2.00;99.90;;;;;;5013846;28;20439;-77
2024/01/15 00:41:02;;;;;;;5.10;1.93;;;2.00;99.90;;;;;;5014499;28;20482;-78
2024/01/15 00:43:31;;;;;;;11.27;2.33;;;2.00;99.90;;;;;;5015540;28;20523;-78
2024/01/15 00:45:59;;;;;;;8.27;2.87;;;2.00;99.90;;;;;;5014709;28;20460;-78
2024/01/15 00:48:27;;;;;;;13.53;4.50;;;2.10;99.90;;;;;;5017252;28;20448;-80
2024/01/15 00:50:57;;;;;;;6.73;1.97;;;2.10;99.90;;;;;;5016178;28;20482;-78
2024/01/15 00:53:26;;;;;;;10.17;2.43;;;2.10;99.90;;;;;;5014628;28;20502;-79
2024/01/15 00:55:54;;;;;;;6.97;2.60;;;2.10;99.90;;;;;;5014806;28;20463;-78
2024/01/15 00:58:23;;;;;;;7.63;2.27;;;2.10;99.90;;;;;;5016785;28;20451;-79
2024/01/15 01:00:51;;;;;;;6.03;2.60;;;2.10;99.90;;;;;;5017635;28;20504;-78
2024/01/15 01:03:19;;;;;;;5.33;1.80;;;2.10;99.90;;;;;;5015960;28;20454;-78
2024/01/15 01:05:49;;;;;;;7.93;2.83;;;2.10;99.90;;;;;;5015544;28;20442;-79
2024/01/15 01:08:19;;;;;;;5.90;2.50;;;2.10;99.90;;;;;;5014445;28;20461;-78
2024/01/15 01:10:47;;;;;;;4.60;1.40;;;2.10;99.90;;;;;;5015349;28;20466;-79
2024/01/15 01:13:16;;;;;;;5.20;2.00;;;2.10;99.90;;;;;;5014048;28;20474;-78
2024/01/15 01:15:44;;;;;;;9.83;2.17;;;2.10;99.90;;;;;;5013923;28;20545;-78
2024/01/15 01:18:12;;;;;;;9.53;2.70;;;2.10;99.90;;;;;;5013516;28;20456;-79
2024/01/15 01:20:41;;;;;;;5.47;1.80;;;2.10;99.90;;;;;;5014176;28;20542;-79
2024/01/15 01:23:09;;;;;;;4.87;1.53;;;2.10;99.90;;;;;;5014059;28;20479;-78
2024/01/15 01:25:39;;;;;;;5.90;1.73;;;2.10;99.90;;;;;;5013342;28;20452;-78
2024/01/15 01:28:07;;;;;;;5.30;1.33;;;2.10;99.90;;;;;;5014350;28;20436;-77
2024/01/15 01:30:35;;;;;;;6.10;2.63;;;2.00;99.90;;;;;;5015209;28;20482;-80
2024/01/15 01:33:04;;;;;;;8.23;2.10;;;2.10;99.90;;;;;;5014370;28;20972;-79
2024/01/15 01:35:33;;;;;;;3.67;1.30;;;2.10;99.90;;;;;;5013575;28;20522;-79
2024/01/15 01:38:01;;;;;;;6.57;1.57;;;2.10;99.90;;;;;;5013447;28;20475;-78
2024/01/15 01:40:29;;;;;;;6.07;1.73;;;2.10;99.90;;;;;;5014874;28;20475;-78
2024/01/15 01:42:59;;;;;;;5.33;1.80;;;2.10;99.90;;;;;;5015575;28;20501;-78
2024/01/15 01:45:27;;;;;;;5.90;1.83;;;2.00;99.90;;;;;;5013281;28;20481;-78
2024/01/15 01:47:55;;;;;;;10.07;2.03;;;2.00;99.90;;;;;;5013581;28;20456;-78
2024/01/15 01:50:24;;;;;;;7.37;2.80;;;2.00;99.90;;;;;;5014872;28;20471;-79
2024/01/15 01:52:53;;;;;;;9.73;2.20;;;2.00;99.90;;;;;;5014609;28;20534;-80
2024/01/15 01:55:24;;;;;;;5.60;1.57;;;2.00;99.90;;;;;;5015161;28;20456;-79
2024/01/15 01:57:53;;;;;;;5.67;2.10;;;1.90;99.90;;;;;;5016581;28;20420;-80
2024/01/15 02:00:23;;;;;;;9.80;2.33;;;1.90;99.90;;;;;;5015605;28;20479;-80
2024/01/15 02:02:52;;;;;;;9.87;2.60;;;1.90;99.90;;;;;;5017849;28;20446;-80
2024/01/15 02:05:21;;;;;;;4.93;2.00;;;1.90;99.90;;;;;;5017131;28;20459;-80
2024/01/15 02:07:50;;;;;;;7.27;2.37;;;1.90;99.90;;;;;;5015419;28;20878;-79
2024/01/15 02:10:19;;;;;;;12.30;3.13;;;1.90;99.90;;;;;;5018001;28;21013;-79
2024/01/15 02:12:48;;;;;;;8.70;2.60;;;1.90;99.90;;;;;;5019069;28;20824;-79
2024/01/15 02:15:17;;;;;;;9.03;2.30;;;1.90;99.90;;;;;;5018881;28;20455;-79
2024/01/15 02:17:59;;;;;;;6.00;2.13;;;1.90;99.90;;;;;;5018954;28;20865;-80
2024/01/15 02:20:29;;;;;;;6.50;2.33;;;1.90;99.90;;;;;;5017327;28;20475;-78
2024/01/15 02:23:08;;;;;;;9.53;2.37;;;1.90;99.90;;;;;;5018354;28;20458;-79
2024/01/15 02:25:37;;;;;;;10.83;2.53;;;1.90;99.90;;;;;;5019087;28;20481;-79
2024/01/15 02:28:06;;;;;;;8.73;3.40;;;2.00;99.90;;;;;;5021486;28;20434;-79
2024/01/15 02:30:37;;;;;;;7.27;2.07;;;2.00;99.90;;;;;;5020197;28;20487;-79
2024/01/15 02:33:06;;;;;;;8.10;2.90;;;2.00;99.90;;;;;;5018622;28;20530;-80
2024/01/15 02:35:36;;;;;;;7.07;1.97;;;2.00;99.90;;;;;;5019251;28;20454;-78
2024/01/15 02:38:06;;;;;;;6.50;1.40;;;2.00;99.90;;;;;;5018270;28;20455;-79
2024/01/15 02:40:35;;;;;;;4.50;1.60;;;2.00;99.90;;;;;;5017197;28;20509;-79
2024/01/15 02:43:04;;;;;;;7.53;1.77;;;2.00;99.90;;;;;;5020730;28;20498;-79
2024/01/15 02:45:32;;;;;;;9.33;2.30;;;2.00;99.90;;;;;;5021365;28;20496;-77
2024/01/15 02:48:01;;;;;;;6.77;2.17;;;2.00;99.90;;;;;;5016887;28;20819;-78
2024/01/15 02:50:29;;;;;;;6.63;3.73;;;2.00;99.90;;;;;;5018736;28;20465;-79
2024/01/15 02:52:57;;;;;;;10.20;1.90;;;2.00;99.90;;;;;;5017990;28;20457;-81
2024/01/15 02:55:29;;;;;;;5.83;1.97;;;2.00;99.90;;;;;;5022779;28;20453;-79
2024/01/15 02:57:57;;;;;;;5.63;2.10;;;2.00;99.90;;;;;;5022223;28;20444;-79
2024/01/15 03:00:26;;;;;;;4.87;2.00;;;2.10;99.90;;;;;;5020970;28;20470;-79
2024/01/15 03:02:55;;;;;;;6.70;2.10;;;2.10;99.90;;;;;;5019352;28;20478;-79
2024/01/15 03:05:23;;;;;;;7.20;2.40;;;2.10;99.90;;;;;;5020351;28;20454;-79
2024/01/15 03:07:52;;;;;;;6.67;2.20;;;2.00;99.90;;;;;;5017751;28;20918;-77
2024/01/15 03:10:20;;;;;;;8.03;1.90;;;2.00;99.90;;;;;;5018540;28;20467;-80
2024/01/15 03:12:50;;;;;;;6.27;2.37;;;2.10;99.90;;;;;;5020121;28;20497;-79
2024/01/15 03:15:19;;;;;;;6.33;1.93;;;2.00;99.90;;;;;;5018631;28;20984;-79
2024/01/15 03:17:47;;;;;;;5.57;2.00;;;2.00;99.90;;;;;;5019309;28;20550;-78
2024/01/15 03:20:16;;;;;;;4.67;1.73;;;2.00;99.90;;;;;;5018128;28;20472;-79
2024/01/15 03:22:44;;;;;;;7.10;2.23;;;2.00;99.90;;;;;;5019151;28;20502;-79
2024/01/15 03:25:12;;;;;;;5.23;1.87;;;2.10;99.90;;;;;;5018071;28;20502;-79
2024/01/15 03:27:40;;;;;;;6.10;1.70;;;2.00;99.90;;;;;;5018994;28;20497;-78
2024/01/15 03:30:12;;;;;;;11.83;2.40;;;2.10;99.90;;;;;;5017724;28;20590;-78
2024/01/15 03:32:40;;;;;;;6.50;1.93;;;2.00;99.90;;;;;;5018809;28;20440;-78
2024/01/15 03:35:09;;;;;;;7.27;1.90;;;2.00;99.90;;;;;;5018890;28;20446;-79
2024/01/15 03:37:37;;;;;;;7.87;1.97;;;2.10;99.90;;;;;;5017490;28;20948;-79
2024/01/15 03:40:06;;;;;;;8.60;2.10;;;2.00;99.90;;;;;;5019028;28;20434;-78
2024/01/15 03:42:35;;;;;;;6.27;1.77;;;2.10;99.90;;;;;;5016729;28;20473;-80
2024/01/15 03:45:03;;;;;;;8.20;2.47;;;2.00;99.90;;;;;;5016761;28;20454;-79
2024/01/15 03:47:33;;;;;;;4.53;1.43;;;2.00;99.90;;;;;;5016649;28;20455;-79
2024/01/15 03:50:02;;;;;;;8.30;2.70;;;2.00;99.90;;;;;;5016667;28;20789;-78
2024/01/15 03:52:30;;;;;;;5.80;2.17;;;2.00;99.90;;;;;;5016065;28;20457;-78
2024/01/15 03:54:58;;;;;;;10.43;2.73;;;2.00;99.90;;;;;;5016509;28;20799;-79
2024/01/15 03:57:27;;;;;;;7.50;2.07;;;2.00;99.90;;;;;;5016332;28;20463;-78
2024/01/15 03:59:56;;;;;;;8.33;2.30;;;2.10;99.90;;;;;;5016577;28;20456;-78
2024/01/15 04:02:24;;;;;;;9.97;2.57;;;2.00;99.90;;;;;;5016359;28;20525;-78
2024/01/15 04:04:54;;;;;;;7.17;1.97;;;2.00;99.90;;;;;;5016589;28;20894;-78
2024/01/15 04:07:22;;;;;;;7.23;1.97;;;2.10;99.90;;;;;;5016610;28;20466;-79
2024/01/15 04:09:50;;;;;;;11.53;2.80;;;2.00;99.90;;;;;;5015578;28;20446;-78
2024/01/15 04:12:19;;;;;;;8.47;2.23;;;2.00;99.90;;;;;;5016026;28;21042;-79
2024/01/15 04:14:47;;;;;;;7.60;1.87;;;2.00;99.90;;;;;;5016351;28;20448;-79
2024/01/15 04:17:16;;;;;;;7.20;2.50;;;2.10;99.90;;;;;;5015477;28;20490;-78
2024/01/15 04:19:45;;;;;;;6.03;1.70;;;2.10;99.90;;;;;;5015481;28;20539;-78
2024/01/15 04:22:15;;;;;;;8.27;2.77;;;2.10;99.90;;;;;;5015939;28;20999;-80
2024/01/15 04:24:43;;;;;;;16.53;2.33;;;2.10;99.90;;;;;;5016020;28;20450;-80
2024/01/15 04:27:12;;;;;;;6.37;2.50;;;2.10;99.90;;;;;;5016105;28;20804;-77
2024/01/15 04:29:40;;;;;;;10.97;2.00;;;2.10;99.90;;;;;;5017386;28;20465;-78
2024/01/15 04:32:09;;;;;;;8.10;2.50;;;2.10;99.90;;;;;;5017262;28;20486;-79
2024/01/15 04:34:37;;;;;;;8.47;3.10;;;2.20;99.90;;;;;;5016538;28;20804;-79
2024/01/15 04:37:06;;;;;;;8.50;2.03;;;2.20;99.90;;;;;;5016058;28;20459;-78
2024/01/15 04:39:35;;;;;;;7.20;2.53;;;2.20;99.90;;;;;;5016957;28;20444;-79
2024/01/15 04:42:04;;;;;;;10.30;2.43;;;2.20;99.90;;;;;;5016241;28;20479;-79
2024/01/15 04:44:33;;;;;;;8.97;2.27;;;2.20;99.90;;;;;;5017753;28;20452;-80
2024/01/15 04:47:01;;;;;;;8.07;2.33;;;2.20;99.90;;;;;;5020153;28;20847;-79
2024/01/15 04:49:29;;;;;;;8.03;2.33;;;2.30;99.90;;;;;;5016348;28;20502;-78
2024/01/15 04:51:58;;;;;;;8.27;2.50;;;2.30;99.90;;;;;;5017732;28;20467;-79
2024/01/15 04:54:26;;;;;;;8.93;2.20;;;2.20;99.90;;;;;;5016142;28;20448;-79
2024/01/15 04:56:56;;;;;;;8.13;1.90;;;2.20;99.90;;;;;;5016282;28;20451;-79
2024/01/15 04:59:24;;;;;;;7.40;2.13;;;2.30;99.90;;;;;;5016575;28;20863;-79
2024/01/15 05:01:52;;;;;;;5.87;1.90;;;2.20;99.90;;;;;;5018744;28;20502;-79
2024/01/15 05:04:21;;;;;;;4.70;1.40;;;2.20;99.90;;;;;;5016435;28;20451;-79
2024/01/15 05:06:50;;;;;;;7.10;2.13;;;2.20;99.90;;;;;;5017764;28;20833;-80
2024/01/15 05:09:18;;;;;;;4.27;1.40;;;2.20;99.90;;;;;;5020006;28;20449;-79
2024/01/15 05:11:49;;;;;;;9.80;2.47;;;2.10;99.90;;;;;;5018824;28;20474;-79
2024/01/15 05:14:19;;;;;;;7.77;3.60;;;2.20;99.90;;;;;;5016958;28;20498;-79
2024/01/15 05:16:48;;;;;;;10.23;2.83;;;2.20;99.90;;;;;;5015801;28;20459;-79
2024/01/15 05:19:17;;;;;;;8.53;2.50;;;2.10;99.90;;;;;;5017873;28;20448;-79
2024/01/15 05:21:45;;;;;;;10.33;2.30;;;2.10;99.90;;;;;;5016321;28;20482;-80
2024/01/15 05:24:14;;;;;;;15.17;3.13;;;2.10;99.90;;;;;;5014858;28;20835;-79
2024/01/15 05:26:42;;;;;;;7.90;2.83;;;2.10;99.90;;;;;;5014449;28;20509;-79
2024/01/15 05:29:10;;;;;;;11.27;3.07;;;2.10;99.90;;;;;;5014316;28;20558;-78
2024/01/15 05:31:40;;;;;;;8.00;2.10;;;2.10;99.90;;;;;;5014727;28;20477;-78
2024/01/15 05:34:09;;;;;;;5.73;2.20;;;2.10;99.90;;;;;;5014078;28;20980;-79
2024/01/15 05:36:37;;;;;;;7.33;2.40;;;2.10;99.90;;;;;;5014383;28;20451;-79
2024/01/15 05:39:05;;;;;;;9.70;2.80;;;2.00;99.90;;;;;;5014138;28;20456;-78
2024/01/15 05:41:34;;;;;;;7.93;3.20;;;2.00;99.90;;;;;;5013614;28;20475;-79
2024/01/15 05:44:02;;;;;;;10.57;2.70;;;2.00;99.90;;;;;;5014850;28;20467;-78
2024/01/15 05:46:30;;;;;;;9.20;2.57;;;2.00;99.90;;;;;;5013584;28;20933;-78
2024/01/15 05:49:00;;;;;;;12.80;3.20;;;2.00;99.90;;;;;;5013712;28;20509;-78
2024/01/15 05:51:28;;;;;;;8.60;3.10;;;2.00;99.90;;;;;;5014620;28;20467;-78
2024/01/15 05:53:57;;;;;;;9.93;2.57;;;2.00;99.90;;;;;;5013140;28;20846;-78
2024/01/15 05:56:25;;;;;;;9.57;2.30;;;2.00;99.90;;;;;;5013915;28;20449;-78
2024/01/15 05:58:53;;;;;;;11.50;2.87;;;2.00;99.90;;;;;;5016876;28;20447;-79
2024/01/15 06:01:21;;;;;;;7.47;2.50;;;2.00;99.90;;;;;;5017151;28;20483;-79
2024/01/15 06:03:50;;;;;;;7.33;2.60;;;2.00;99.90;;;;;;5016939;28;20475;-79
2024/01/15 06:06:20;;;;;;;11.20;2.70;;;2.00;99.90;;;;;;5016003;28;20967;-79
2024/01/15 06:08:48;;;;;;;7.10;2.57;;;2.00;99.90;;;;;;5015095;28;20455;-78
2024/01/15 06:11:17;;;;;;;6.50;2.13;;;2.00;99.90;;;;;;5015999;28;20479;-79
2024/01/15 06:13:45;;;;;;;8.40;2.40;;;2.00;99.90;;;;;;5015276;28;20993;-78
2024/01/15 06:16:16;;;;;;;9.70;2.93;;;2.10;99.90;;;;;;5015239;28;20481;-78
2024/01/15 06:18:44;;;;;;;10.38;2.65;;;2.10;99.90;;;;;;5014398;28;20550;-77
2024/01/15 06:21:14;;;;;;;6.90;2.60;;;2.10;99.90;;;;;;5012283;28;20231;-78
2024/01/15 06:23:44;;;;;;;8.70;2.40;;;2.10;99.90;;;;;;5012272;28;20474;-77
2024/01/15 06:26:13;;;;;;;10.13;2.90;;;2.10;99.90;;;;;;5012363;28;20454;-77
2024/01/15 06:28:42;;;;;;;5.20;2.07;;;2.10;99.90;;;;;;5013431;28;20458;-78
2024/01/15 06:31:10;;;;;;;7.80;2.47;;;2.10;99.90;;;;;;5013502;28;20546;-78
2024/01/15 06:33:39;;;;;;;6.33;1.53;;;2.00;99.90;;;;;;5012544;28;20455;-79
2024/01/15 06:36:08;;;;;;;7.60;2.03;;;2.00;99.90;;;;;;5012753;28;20451;-78
2024/01/15 06:38:36;;;;;;;5.03;1.60;;;2.00;99.90;;;;;;5013411;28;20446;-77
2024/01/15 06:41:06;;;;;;;6.30;1.90;;;2.10;99.90;;;;;;5012644;28;20463;-77
2024/01/15 06:43:34;;;;;;;6.07;3.17;;;2.00;99.90;;;;;;5012076;28;20985;-78
2024/01/15 06:46:03;;;;;;;6.33;1.97;;;2.00;99.90;;;;;;5013676;28;20447;-77
2024/01/15 06:48:35;;;;;;;6.50;2.30;;;2.00;99.90;;;;;;5012547;28;20854;-78
2024/01/15 06:51:04;;;;;;;10.03;2.50;;;2.00;99.90;;;;;;5011965;28;20469;-78
2024/01/15 06:53:33;;;;;;;5.03;2.13;;;2.00;99.90;;;;;;5012023;28;20448;-78
2024/01/15 06:56:01;;;;;;;5.40;2.07;;;2.00;99.90;;;;;;5015122;28;20453;-78
2024/01/15 06:58:32;;;;;;;7.30;2.30;;;2.00;99.90;;;;;;5015691;28;20451;-78
2024/01/15 07:01:01;;;;;;;7.80;3.03;;;2.00;99.90;;;;;;5015317;28;20473;-78
2024/01/15 07:03:30;;;;;;;5.20;1.90;;;2.00;99.90;;;;;;5016445;28;20467;-77
2024/01/15 07:05:59;;;;;;;7.67;3.00;;;1.90;99.90;;;;;;5014974;28;20532;-78
2024/01/15 07:08:27;;;;;;;8.70;2.60;;;1.90;99.90;;;;;;5015097;28;20521;-77
2024/01/15 07:10:55;;;;;;;6.53;2.70;;;1.90;99.90;;;;;;5016282;28;20455;-77
2024/01/15 07:13:23;;;;;;;5.70;2.60;;;1.90;99.90;;;;;;5015065;28;20443;-77
2024/01/15 07:15:53;;;;;;;7.00;2.97;;;1.90;99.90;;;;;;5015071;28;20453;-78
2024/01/15 07:18:22;;;;;;;11.20;3.10;;;1.90;99.90;;;;;;5015056;28;20517;-77
2024/01/15 07:20:50;;;;;;;9.00;3.00;;;1.90;99.90;;;;;;5016392;28;20574;-78
2024/01/15 07:23:19;;;;;;;5.80;2.80;;;1.90;99.90;;;;;;5015047;28;20463;-78
2024/01/15 07:25:48;;;;;;;6.30;2.40;;;1.90;99.90;;;;;;5014988;28;20451;-78
2024/01/15 07:28:16;;;;;;;7.33;3.20;;;1.90;99.90;;;;;;5014830;28;20492;-78
2024/01/15 07:30:45;;;;;;;7.57;2.93;;;2.00;99.90;;;;;;5015062;28;20528;-78
2024/01/15 07:33:15;;;;;;;7.07;2.90;;;1.90;99.90;;;;;;5014783;28;20459;-78
2024/01/15 07:35:43;;;;;;;8.83;2.40;;;1.90;99.90;;;;;;5015775;28;20781;-77
2024/01/15 07:38:12;;;;;;;7.37;2.80;;;2.00;99.90;;;;;;5016442;28;20475;-78
2024/01/15 07:40:40;;;;;;;6.43;2.40;;;2.00;99.90;;;;;;5014899;28;20468;-78
2024/01/15 07:43:08;;;;;;;7.10;2.00;;;2.00;99.90;;;;;;5016360;28;20526;-77
2024/01/15 07:45:37;;;;;;;7.07;2.47;;;2.00;99.90;;;;;;5015708;28;20471;-77
2024/01/15 07:48:06;;;;;;;6.80;2.20;;;2.00;99.90;;;;;;5015520;28;20442;-77
2024/01/15 07:50:36;;;;;;;8.83;2.53;;;2.00;99.90;;;;;;5014133;28;20479;-77
2024/01/15 07:53:04;;;;;;;5.60;1.90;;;1.90;99.90;;;;;;5014505;28;20450;-78
2024/01/15 07:55:33;;;;;;;7.43;2.20;;;1.90;99.90;;;;;;5014252;28;20467;-78
2024/01/15 07:58:01;;;;;;;6.63;2.37;;;2.00;99.90;;;;;;5014107;28;20458;-78
2024/01/15 08:00:43;;;;;;;8.10;2.07;;;1.90;99.90;;;;;;5014356;28;20472;-78
2024/01/15 08:03:12;;;;;;;4.17;1.63;;;2.00;99.90;;;;;;5015399;28;20890;-77
2024/01/15 08:05:42;;;;;;;5.03;2.00;;;1.90;99.90;;;;;;5013036;28;20479;-77
2024/01/15 08:08:10;;;;;;;3.70;1.83;;;1.90;99.90;;;;;;5013627;28;20546;-77
2024/01/15 08:10:38;;;;;;;5.83;1.80;;;1.90;99.90;;;;;;5013921;28;20467;-78
2024/01/15 08:13:09;;;;;;;11.33;2.33;;;1.90;99.90;;;;;;5013891;28;20462;-77
2024/01/15 08:15:37;;;;;;;5.60;2.80;;;1.90;99.90;;;;;;5015761;28;20506;-78
2024/01/15 08:18:06;;;;;;;5.30;2.00;;;1.90;99.90;;;;;;5013874;28;20462;-77
2024/01/15 08:20:34;;;;;;;7.47;2.30;;;1.90;99.90;;;;;;5013889;28;20851;-78
2024/01/15 08:23:04;;;;;;;5.13;2.23;;;1.90;99.90;;;;;;5013961;28;20462;-79
2024/01/15 08:25:33;;;;;;;8.60;2.87;;;1.90;99.90;;;;;;5014921;28;20518;-78
2024/01/15 08:28:01;;;;;;;5.00;2.70;;;1.90;99.90;;;;;;5015410;28;20443;-77
2024/01/15 08:30:29;;;;;;;8.07;2.70;;;1.90;99.90;;;;;;5014095;28;20493;-78
2024/01/15 08:32:59;;;;;;;10.60;2.80;;;1.90;99.90;;;;;;5015000;28;20435;-77
2024/01/15 08:35:35;;;;;;;9.63;2.60;;;1.90;99.90;;;;;;5015286;28;20793;-77
2024/01/15 08:38:05;;;;;;;7.33;2.37;;;1.90;99.90;;;;;;5013389;28;20462;-77
2024/01/15 08:40:34;;;;;;;3.90;2.23;;;1.90;99.90;;;;;;5013436;28;20475;-77
2024/01/15 08:43:03;;;;;;;8.63;2.93;;;1.90;99.90;;;;;;5013446;28;20880;-79
2024/01/15 08:45:31;;;;;;;7.40;1.97;;;1.90;99.90;;;;;;5014853;28;20468;-78
2024/01/15 08:48:00;;;;;;;7.50;2.40;;;2.00;99.90;;;;;;5015005;28;20463;-77
2024/01/15 08:50:30;;;;;;;9.60;2.60;;;1.90;99.90;;;;;;5013176;28;21005;-78
2024/01/15 08:52:58;;;;;;;7.40;2.70;;;1.90;99.90;;;;;;5013681;28;20462;-77
2024/01/15 08:55:28;;;;;;;10.17;3.00;;;1.90;99.90;;;;;;5015133;28;20833;-78
2024/01/15 08:57:56;;;;;;;6.10;2.13;;;2.00;99.90;;;;;;5014401;28;20453;-77
2024/01/15 09:00:25;;;;;;;13.27;3.03;;;2.00;99.90;;;;;;5013564;28;20471;-78
2024/01/15 09:02:53;;;;;;;6.70;2.40;;;2.00;99.90;;;;;;5015289;28;20807;-78
2024/01/15 09:05:21;;;;;;;10.40;2.33;;;2.00;99.90;;;;;;5014806;28;20466;-77
2024/01/15 09:07:51;;;;;;;5.53;1.97;;;2.00;99.90;;;;;;5014184;28;20948;-78
2024/01/15 09:10:20;;;;;;;8.57;2.03;;;2.10;99.90;;;;;;5013403;28;20462;-77
2024/01/15 09:12:50;;;;;;;9.00;2.30;;;2.00;99.90;;;;;;5013419;28;20530;-77
2024/01/15 09:15:19;;;;;;;6.43;2.20;;;2.10;99.90;;;;;;5014535;28;20943;-78
2024/01/15 09:17:47;;;;;;;6.37;2.33;;;2.10;99.90;;;;;;5014210;28;20439;-77
2024/01/15 09:20:15;;;;;;;4.63;2.07;;;2.10;99.90;;;;;;5014187;28;21003;-78
2024/01/15 09:22:44;;;;;;;5.73;2.27;;;2.10;99.90;;;;;;5012986;28;20445;-77
2024/01/15 09:25:13;;;;;;;6.70;1.90;;;2.10;99.90;;;;;;5013947;28;20541;-78
2024/01/15 09:27:42;;;;;;;7.00;1.87;;;2.10;99.90;;;;;;5012707;28;20448;-77
2024/01/15 09:30:13;;;;;;;6.70;2.43;;;2.10;99.90;;;;;;5014009;28;20483;-77
2024/01/15 09:32:41;;;;;;;7.70;2.77;;;2.20;99.90;;;;;;5014532;28;20477;-77
2024/01/15 09:35:10;;;;;;;4.33;2.33;;;2.20;99.90;;;;;;5013057;28;20490;-78
2024/01/15 09:37:39;;;;;;;7.90;2.77;;;2.20;99.90;;;;;;5012888;28;20448;-78
2024/01/15 09:40:15;;;;;;;7.27;2.40;;;2.30;99.90;;;;;;5012262;28;21091;-78
2024/01/15 09:42:48;;;;;;;4.80;1.87;;;2.30;99.90;;;;;;5012871;28;20485;-77
2024/01/15 09:45:18;;;;;;;5.50;1.77;;;2.30;99.90;;;;;;5012448;28;20521;-78
2024/01/15 09:47:47;;;;;;;10.27;1.90;;;2.30;99.90;;;;;;5014465;28;20461;-77
2024/01/15 09:50:15;;;;;;;5.77;1.87;;;2.30;99.90;;;;;;5012736;28;20453;-77
2024/01/15 09:52:45;;;;;;;7.20;2.53;;;2.30;99.90;;;;;;5012525;28;20447;-76
2024/01/15 09:55:15;;;;;;;7.87;3.20;;;2.30;99.90;;;;;;5012439;28;20820;-77
2024/01/15 09:57:46;;;;;;;6.80;1.90;;;2.30;99.90;;;;;;5013137;28;20459;-78
2024/01/15 10:00:18;;;;;;;8.20;2.30;;;2.30;99.90;;;;;;5024199;28;20451;-78
2024/01/15 10:02:49;;;;;;;5.27;1.90;;;2.30;99.90;;;;;;5022732;28;20458;-78
2024/01/15 10:05:17;;;;;;;5.53;2.40;;;2.30;99.90;;;;;;5016806;28;20492;-78
2024/01/15 10:07:49;;;;;;;4.87;1.93;;;2.30;99.90;;;;;;5013594;28;20439;-77
2024/01/15 10:10:18;;;;;;;7.47;2.80;;;2.30;99.90;;;;;;5013311;28;20450;-78
2024/01/15 10:12:46;;;;;;;7.33;3.00;;;2.40;99.90;;;;;;5012715;28;20463;-77
2024/01/15 10:15:14;;;;;;;7.10;3.77;;;2.30;99.90;;;;;;5012855;28;20443;-76
2024/01/15 10:17:43;;;;;;;6.30;3.90;;;2.40;99.90;;;;;;5014307;28;20769;-77
2024/01/15 10:20:13;;;;;;;7.20;4.17;;;2.30;99.90;;;;;;5012604;28;20448;-77
2024/01/15 10:22:43;;;;;;;8.10;3.60;;;2.30;99.90;;;;;;5013776;28;20928;-77
2024/01/15 10:25:12;;;;;;;6.33;4.10;;;2.30;99.90;;;;;;5013919;28;21046;-77
2024/01/15 10:27:42;;;;;;;8.60;3.23;;;2.30;99.90;;;;;;5012419;28;20498;-77
2024/01/15 10:30:11;;;;;;;8.73;3.67;;;2.30;99.90;;;;;;5014369;28;20487;-76
2024/01/15 10:32:41;;;;;;;7.63;2.80;;;2.30;99.90;;;;;;5016185;28;20888;-78
2024/01/15 10:35:09;;;;;;;6.40;3.93;;;2.30;99.90;;;;;;5016894;28;20458;-78
2024/01/15 10:37:39;;;;;;;9.40;2.63;;;2.30;99.90;;;;;;5016859;28;20804;-78
2024/01/15 10:40:08;;;;;;;6.77;3.20;;;2.20;99.90;;;;;;5016128;28;20587;-77
2024/01/15 10:42:36;;;;;;;6.93;2.70;;;2.20;99.90;;;;;;5015850;28;20442;-77
2024/01/15 10:45:05;;;;;;;9.83;3.43;;;2.20;99.90;;;;;;5015778;28;20821;-76
2024/01/15 10:47:33;;;;;;;11.87;3.73;;;2.20;99.90;;;;;;5016399;28;20526;-78
2024/01/15 10:50:02;;;;;;;8.67;3.03;;;2.20;99.90;;;;;;5015569;28;20804;-76
2024/01/15 10:52:31;;;;;;;9.47;2.60;;;2.20;99.90;;;;;;5015741;28;20440;-76
2024/01/15 10:55:02;;;;;;;9.77;2.93;;;2.10;99.90;;;;;;5015965;28;20455;-77
2024/01/15 10:57:37;;;;;;;7.80;3.47;;;2.10;99.90;;;;;;5015226;28;20538;-76
2024/01/15 11:00:07;;;;;;;9.10;3.50;;;2.10;99.90;;;;;;5016427;28;20461;-76
2024/01/15 11:02:37;;;;;;;9.57;2.77;;;2.10;99.90;;;;;;5016821;28;20446;-76
2024/01/15 11:05:06;;;;;;;9.70;2.97;;;2.10;99.90;;;;;;5015354;28;20444;-76
2024/01/15 11:07:34;;;;;;;7.30;2.00;;;2.20;99.90;;;;;;5015044;28;20991;-76
2024/01/15 11:10:10;;;;;;;7.30;2.03;;;2.20;99.90;;;;;;5016090;28;20446;-76
2024/01/15 11:12:43;;;;;;;6.27;1.60;;;2.20;99.90;;;;;;5016573;28;20494;-76
2024/01/15 11:15:20;;;;;;;9.03;2.20;;;2.30;99.90;;;;;;5016592;28;20428;-77
2024/01/15 11:18:05;;;;;;;5.00;2.10;;;2.30;99.90;;;;;;5014969;28;20941;-76
2024/01/15 11:20:34;;;;;;;5.10;2.23;;;2.30;99.90;;;;;;5015786;28;20471;-76
2024/01/15 11:23:02;;;;;;;7.33;2.30;;;2.30;99.90;;;;;;5015471;28;20479;-78
2024/01/15 11:25:38;;;;;;;5.30;2.23;;;2.30;99.90;;;;;;5014995;28;20671;-77
2024/01/15 11:28:06;;;;;;;5.40;2.27;;;2.30;99.90;;;;;;5014827;28;20454;-77
2024/01/15 11:30:36;;;;;;;7.00;1.70;;;2.30;99.90;;;;;;5015217;28;20846;-78
2024/01/15 11:33:07;;;;;;;8.00;2.27;;;2.40;99.90;;;;;;5015202;28;20440;-76
2024/01/15 11:35:51;;;;;;;5.93;2.43;;;2.40;99.90;;;;;;5015658;28;20482;-78
2024/01/15 11:38:30;;;;;;;6.83;2.37;;;2.40;99.90;;;;;;5016670;28;20417;-78
2024/01/15 11:41:01;;;;;;;5.40;2.40;;;2.40;99.90;;;;;;5014602;28;20567;-77
2024/01/15 11:43:32;;;;;;;7.50;3.60;;;2.40;99.90;;;;;;5014761;28;20539;-76
2024/01/15 11:46:04;;;;;;;6.87;2.30;;;2.40;99.90;;;;;;5014675;28;20471;-77
2024/01/15 11:48:44;;;;;;;6.47;1.97;;;2.40;99.90;;;;;;5014624;28;20546;-77
2024/01/15 11:51:13;;;;;;;6.27;2.50;;;2.40;99.90;;;;;;5014788;28;20482;-77
2024/01/15 11:53:46;;;;;;;6.47;2.40;;;2.50;99.90;;;;;;5015937;28;20813;-77
2024/01/15 11:56:17;;;;;;;6.60;1.90;;;2.50;99.90;;;;;;5016208;28;20428;-78
2024/01/15 11:58:45;;;;;;;4.37;2.13;;;2.40;99.90;;;;;;5015024;28;20494;-76
2024/01/15 12:01:17;;;;;;;8.10;2.23;;;2.40;99.90;;;;;;5015398;28;20491;-79
2024/01/15 12:03:48;;;;;;;9.33;2.80;;;2.40;99.90;;;;;;5015360;28;20447;-78
2024/01/15 12:06:16;;;;;;;4.17;1.80;;;2.40;99.90;;;;;;5015273;28;20468;-78
2024/01/15 12:08:45;;;;;;;7.00;2.30;;;2.50;99.90;;;;;;5015092;28;20487;-78
2024/01/15 12:11:18;;;;;;;4.20;1.87;;;2.40;99.90;;;;;;5014733;28;20514;-78
2024/01/15 12:13:46;;;;;;;7.60;1.80;;;2.40;99.90;;;;;;5015011;28;20448;-78
2024/01/15 12:16:15;;;;;;;3.13;2.10;;;2.40;99.90;;;;;;5014803;28;20452;-78
2024/01/15 12:18:43;;;;;;;4.10;2.00;;;2.40;99.90;;;;;;5014457;28;20439;-78
2024/01/15 12:21:12;;;;;;;5.77;2.03;;;2.40;99.90;;;;;;5014476;28;20486;-78
2024/01/15 12:23:40;;;;;;;5.60;2.07;;;2.40;99.90;;;;;;5014935;28;20459;-78
2024/01/15 12:26:09;;;;;;;6.60;2.37;;;2.50;99.90;;;;;;5014439;28;20458;-78
2024/01/15 12:28:39;;;;;;;5.17;2.30;;;2.40;99.90;;;;;;5014090;28;20945;-78
2024/01/15 12:31:07;;;;;;;5.87;2.37;;;2.40;99.90;;;;;;5014286;28;20475;-78
2024/01/15 12:33:36;;;;;;;6.83;2.73;;;2.50;99.90;;;;;;5013704;28;20506;-77
2024/01/15 12:36:05;;;;;;;5.67;2.30;;;2.50;99.90;;;;;;5013380;28;20979;-78
2024/01/15 12:38:34;;;;;;;4.83;2.27;;;2.50;99.90;;;;;;5013369;28;20459;-78
2024/01/15 12:41:02;;;;;;;3.07;1.80;;;2.60;99.90;;;;;;5013799;28;21120;-79
2024/01/15 12:43:30;;;;;;;4.03;2.23;;;2.60;99.90;;;;;;5013844;28;20945;-78
2024/01/15 12:46:00;;;;;;;7.27;2.40;;;2.60;99.90;;;;;;5013489;28;20452;-78
2024/01/15 12:48:29;;;;;;;11.23;2.40;;;2.60;99.90;;;;;;5014586;28;20440;-79
2024/01/15 12:50:57;;;;;;;3.60;1.77;;;2.60;99.90;;;;;;5015157;28;20509;-78
2024/01/15 12:53:25;;;;;;;8.00;2.23;;;2.60;99.90;;;;;;5014659;28;20534;-79
2024/01/15 12:55:54;;;;;;;5.60;2.33;;;2.60;99.90;;;;;;5014803;28;20455;-78
2024/01/15 12:58:22;;;;;;;7.53;2.30;;;2.60;99.90;;;;;;5015673;28;20434;-78
2024/01/15 13:00:51;;;;;;;5.80;2.50;;;2.60;99.90;;;;;;5014177;28;20474;-77
2024/01/15 13:03:21;;;;;;;11.67;2.47;;;2.60;99.90;;;;;;5014127;28;20462;-77
2024/01/15 13:05:49;;;;;;;5.60;2.07;;;2.50;99.90;;;;;;5013274;28;20957;-78